Ephrata, PA (17522)

3:58 AM EDT on August 04, 2015 (GMT -0400)
Weather on the Hill / or not | | Change Station
CLOSE
Current Station
Personal Weather Station
Location: Ephrata, PA
Elevation: 499 ft
Nearby Weather Stations

Elev 499 ft 40.17 °N, 76.18 °W | Updated 9 seconds ago

Overcast
Overcast
67.4 °F
Feels Like 67.4 °F
N
3.1
Wind Variable Wind from SSW
Gusts 4.5 mph

Today
High -- | Low -- °F
--% Chance of Precip.
Yesterday
High -- | Low -- °F
Precip. -- in
6:05 AM 8:15 PM
Waning Gibbous, 80% visible
Pressure 29.84 in
Visibility 8.0 miles
Clouds Few 7500 ft
Overcast 11000 ft
Dew Point 64 °F
Humidity 89%
Rainfall 0.21 in
Snow Depth Not available.
UV 0.0 out of 12
Pollen 6.60 out of 12
Air Quality Not available.
Flu Activity Not available.
METAR KLNS 040753Z 16006KT 8SM -TSRA FEW075 OVC110 21/19 A2985 RMK AO2 LTG DSNT SW RAB21 TSB49 SLP105 P0002 T02060194

More Conditions Fewer Conditions

Pressure 29.84 in
Visibility 8.0 miles
Clouds Few 7500 ft
Overcast 11000 ft
Dew Point 64 °F
Humidity 89%
Rainfall 0.21 in
Snow Depth Not available.
UV 0.0 out of 12
Pollen 6.60 out of 12
Air Quality Not available.
Flu Activity Not available.
METAR KLNS 040753Z 16006KT 8SM -TSRA FEW075 OVC110 21/19 A2985 RMK AO2 LTG DSNT SW RAB21 TSB49 SLP105 P0002 T02060194

More Conditions Fewer Conditions

10-Day Weather Forecast

×

Almanac

Astronomy

Aug. 04, 2015 Rise Set
Actual Time
Civil Twilight
Nautical Twilight
Astronomical Twilight
Moon
Length of Visible Light
Length of Day
Tomorrow will be .
, % of the Moon is Illuminated

Today's Extremes

State Highs State Lows

Community

WunderPhotos

Upload Photos

1,843,877 photos uploaded!

WunderBlogs® & News

Nearby

Air Quality

  Air Quality AQ Index Pollutant
Not available.

Snow Depth

Station Depth Elevation

Earthquake Activity

City Distance Mag. Time & Date
Minimum magnitude displayed is 2.5.

Coastal Water Temperatures

Place Temperature

Stations

Nearby Weather Stations

Station Location Temp. Windchill Dew Point Humidity Wind Precip. Elev Updated Type